sensor_id;sensor_type;location;lat;lon;timestamp;temperature;humidity
49579;DHT22;35483;50.828;3.228;2023-11-22T00:01:26;8.10;99.90
49579;DHT22;35483;50.828;3.228;2023-11-22T00:03:55;8.10;99.90
49579;DHT22;35483;50.828;3.228;2023-11-22T00:06:24;8.00;99.90
49579;DHT22;35483;50.828;3.228;2023-11-22T00:08:49;8.00;99.90
49579;DHT22;35483;50.828;3.228;2023-11-22T00:11:15;8.00;99.90
49579;DHT22;35483;50.828;3.228;2023-11-22T00:13:47;7.90;99.90
49579;DHT22;35483;50.828;3.228;2023-11-22T00:16:17;7.90;99.90
49579;DHT22;35483;50.828;3.228;2023-11-22T00:18:44;7.90;99.90
49579;DHT22;35483;50.828;3.228;2023-11-22T00:21:11;7.90;99.90
49579;DHT22;35483;50.828;3.228;2023-11-22T00:23:40;7.80;99.90
49579;DHT22;35483;50.828;3.228;2023-11-22T00:26:08;7.80;99.90
49579;DHT22;35483;50.828;3.228;2023-11-22T00:28:37;7.80;99.90
49579;DHT22;35483;50.828;3.228;2023-11-22T00:31:03;7.80;99.90
49579;DHT22;35483;50.828;3.228;2023-11-22T00:33:31;7.70;99.90
49579;DHT22;35483;50.828;3.228;2023-11-22T00:35:57;7.70;99.90
49579;DHT22;35483;50.828;3.228;2023-11-22T00:38:25;7.70;99.90
49579;DHT22;35483;50.828;3.228;2023-11-22T00:40:54;7.70;99.90
49579;DHT22;35483;50.828;3.228;2023-11-22T00:43:20;7.70;99.90
49579;DHT22;35483;50.828;3.228;2023-11-22T00:45:46;7.60;99.90
49579;DHT22;35483;50.828;3.228;2023-11-22T00:48:12;7.60;99.90
49579;DHT22;35483;50.828;3.228;2023-11-22T00:50:39;7.60;99.90
49579;DHT22;35483;50.828;3.228;2023-11-22T00:53:07;7.50;99.90
49579;DHT22;35483;50.828;3.228;2023-11-22T00:55:36;7.60;99.90
49579;DHT22;35483;50.828;3.228;2023-11-22T00:58:04;7.50;99.90
49579;DHT22;35483;50.828;3.228;2023-11-22T01:00:33;7.50;99.90
49579;DHT22;35483;50.828;3.228;2023-11-22T01:03:01;7.50;99.90
49579;DHT22;35483;50.828;3.228;2023-11-22T01:05:30;7.50;99.90
49579;DHT22;35483;50.828;3.228;2023-11-22T01:07:55;7.50;99.90
49579;DHT22;35483;50.828;3.228;2023-11-22T01:10:25;7.40;99.90
49579;DHT22;35483;50.828;3.228;2023-11-22T01:12:53;7.40;99.90
49579;DHT22;35483;50.828;3.228;2023-11-22T01:15:22;7.40;99.90
49579;DHT22;35483;50.828;3.228;2023-11-22T01:17:48;7.40;99.90
49579;DHT22;35483;50.828;3.228;2023-11-22T01:20:15;7.40;99.90
49579;DHT22;35483;50.828;3.228;2023-11-22T01:22:44;7.30;99.90
49579;DHT22;35483;50.828;3.228;2023-11-22T01:25:11;7.30;99.90
49579;DHT22;35483;50.828;3.228;2023-11-22T01:27:39;7.30;99.90
49579;DHT22;35483;50.828;3.228;2023-11-22T01:30:07;7.30;99.90
49579;DHT22;35483;50.828;3.228;2023-11-22T01:32:33;7.30;99.90
49579;DHT22;35483;50.828;3.228;2023-11-22T01:35:01;7.20;99.90
49579;DHT22;35483;50.828;3.228;2023-11-22T01:37:28;7.20;99.90
49579;DHT22;35483;50.828;3.228;2023-11-22T01:39:54;7.20;99.90
49579;DHT22;35483;50.828;3.228;2023-11-22T01:42:20;7.20;99.90
49579;DHT22;35483;50.828;3.228;2023-11-22T01:44:46;7.10;99.90
49579;DHT22;35483;50.828;3.228;2023-11-22T01:47:13;7.00;99.90
49579;DHT22;35483;50.828;3.228;2023-11-22T01:49:41;7.00;99.90
49579;DHT22;35483;50.828;3.228;2023-11-22T01:52:07;6.90;99.90
49579;DHT22;35483;50.828;3.228;2023-11-22T01:54:33;6.90;99.90
49579;DHT22;35483;50.828;3.228;2023-11-22T01:57:02;6.90;99.90
49579;DHT22;35483;50.828;3.228;2023-11-22T01:59:30;6.90;99.90
49579;DHT22;35483;50.828;3.228;2023-11-22T02:01:57;6.80;99.90
49579;DHT22;35483;50.828;3.228;2023-11-22T02:04:25;6.80;99.90
49579;DHT22;35483;50.828;3.228;2023-11-22T02:06:54;6.80;99.90
49579;DHT22;35483;50.828;3.228;2023-11-22T02:09:20;6.80;99.90
49579;DHT22;35483;50.828;3.228;2023-11-22T02:11:46;6.70;99.90
49579;DHT22;35483;50.828;3.228;2023-11-22T02:14:14;6.70;99.90
49579;DHT22;35483;50.828;3.228;2023-11-22T02:16:41;6.70;99.90
49579;DHT22;35483;50.828;3.228;2023-11-22T02:19:17;6.60;99.90
49579;DHT22;35483;50.828;3.228;2023-11-22T02:21:44;6.60;99.90
49579;DHT22;35483;50.828;3.228;2023-11-22T02:24:13;6.60;99.90
49579;DHT22;35483;50.828;3.228;2023-11-22T02:26:44;6.60;99.90
49579;DHT22;35483;50.828;3.228;2023-11-22T02:29:14;6.60;99.90
49579;DHT22;35483;50.828;3.228;2023-11-22T02:31:43;6.50;99.90
49579;DHT22;35483;50.828;3.228;2023-11-22T02:34:12;6.60;99.90
49579;DHT22;35483;50.828;3.228;2023-11-22T02:36:38;6.60;99.90
49579;DHT22;35483;50.828;3.228;2023-11-22T02:39:05;6.60;99.90
49579;DHT22;35483;50.828;3.228;2023-11-22T02:41:33;6.60;99.90
49579;DHT22;35483;50.828;3.228;2023-11-22T02:44:00;6.60;99.90
49579;DHT22;35483;50.828;3.228;2023-11-22T02:46:27;6.70;99.90
49579;DHT22;35483;50.828;3.228;2023-11-22T02:48:54;6.70;99.90
49579;DHT22;35483;50.828;3.228;2023-11-22T02:51:20;6.70;99.90
49579;DHT22;35483;50.828;3.228;2023-11-22T02:53:54;6.70;99.90
49579;DHT22;35483;50.828;3.228;2023-11-22T02:56:21;6.70;99.90
49579;DHT22;35483;50.828;3.228;2023-11-22T02:58:48;6.70;99.90
49579;DHT22;35483;50.828;3.228;2023-11-22T03:01:17;6.80;99.90
49579;DHT22;35483;50.828;3.228;2023-11-22T03:03:46;6.80;99.90
49579;DHT22;35483;50.828;3.228;2023-11-22T03:06:15;6.80;99.90
49579;DHT22;35483;50.828;3.228;2023-11-22T03:08:41;6.80;99.90
49579;DHT22;35483;50.828;3.228;2023-11-22T03:11:09;6.80;99.90
49579;DHT22;35483;50.828;3.228;2023-11-22T03:13:35;6.80;99.90
49579;DHT22;35483;50.828;3.228;2023-11-22T03:16:04;6.80;99.90
49579;DHT22;35483;50.828;3.228;2023-11-22T03:18:30;6.80;99.90
49579;DHT22;35483;50.828;3.228;2023-11-22T03:20:57;6.80;99.90
49579;DHT22;35483;50.828;3.228;2023-11-22T03:23:24;6.80;99.90
49579;DHT22;35483;50.828;3.228;2023-11-22T03:25:54;6.80;99.90
49579;DHT22;35483;50.828;3.228;2023-11-22T03:28:21;6.80;99.90
49579;DHT22;35483;50.828;3.228;2023-11-22T03:30:53;6.70;99.90
49579;DHT22;35483;50.828;3.228;2023-11-22T03:33:19;6.80;99.90
49579;DHT22;35483;50.828;3.228;2023-11-22T03:35:47;6.80;99.90
49579;DHT22;35483;50.828;3.228;2023-11-22T03:38:14;6.90;99.90
49579;DHT22;35483;50.828;3.228;2023-11-22T03:40:43;6.80;99.90
49579;DHT22;35483;50.828;3.228;2023-11-22T03:43:09;6.80;99.90
49579;DHT22;35483;50.828;3.228;2023-11-22T03:45:36;6.80;99.90
49579;DHT22;35483;50.828;3.228;2023-11-22T03:48:06;6.80;99.90
49579;DHT22;35483;50.828;3.228;2023-11-22T03:50:32;6.80;99.90
49579;DHT22;35483;50.828;3.228;2023-11-22T03:53:01;6.80;99.90
49579;DHT22;35483;50.828;3.228;2023-11-22T03:55:28;6.80;99.90
49579;DHT22;35483;50.828;3.228;2023-11-22T03:57:53;6.70;99.90
49579;DHT22;35483;50.828;3.228;2023-11-22T04:00:19;6.70;99.90
49579;DHT22;35483;50.828;3.228;2023-11-22T04:02:48;6.60;99.90
49579;DHT22;35483;50.828;3.228;2023-11-22T04:05:15;6.60;99.90
49579;DHT22;35483;50.828;3.228;2023-11-22T04:07:41;6.60;99.90
49579;DHT22;35483;50.828;3.228;2023-11-22T04:10:07;6.60;99.90
49579;DHT22;35483;50.828;3.228;2023-11-22T04:12:33;6.60;99.90
49579;DHT22;35483;50.828;3.228;2023-11-22T04:14:59;6.60;99.90
49579;DHT22;35483;50.828;3.228;2023-11-22T04:17:28;6.60;99.90
49579;DHT22;35483;50.828;3.228;2023-11-22T04:19:54;6.60;99.90
49579;DHT22;35483;50.828;3.228;2023-11-22T04:22:21;6.50;99.90
49579;DHT22;35483;50.828;3.228;2023-11-22T04:24:48;6.50;99.90
49579;DHT22;35483;50.828;3.228;2023-11-22T04:27:14;6.50;99.90
49579;DHT22;35483;50.828;3.228;2023-11-22T04:29:41;6.50;99.90
49579;DHT22;35483;50.828;3.228;2023-11-22T04:32:08;6.50;99.90
49579;DHT22;35483;50.828;3.228;2023-11-22T04:34:37;6.40;99.90
49579;DHT22;35483;50.828;3.228;2023-11-22T04:37:04;6.40;99.90
49579;DHT22;35483;50.828;3.228;2023-11-22T04:39:30;6.40;99.90
49579;DHT22;35483;50.828;3.228;2023-11-22T04:41:56;6.40;99.90
49579;DHT22;35483;50.828;3.228;2023-11-22T04:44:22;6.40;99.90
49579;DHT22;35483;50.828;3.228;2023-11-22T04:46:48;6.40;99.90
49579;DHT22;35483;50.828;3.228;2023-11-22T04:49:14;6.40;99.90
49579;DHT22;35483;50.828;3.228;2023-11-22T04:51:40;6.40;99.90
49579;DHT22;35483;50.828;3.228;2023-11-22T04:54:11;6.40;99.90
49579;DHT22;35483;50.828;3.228;2023-11-22T04:56:38;6.40;99.90
49579;DHT22;35483;50.828;3.228;2023-11-22T04:59:05;6.40;99.90
49579;DHT22;35483;50.828;3.228;2023-11-22T05:01:34;6.40;99.90
49579;DHT22;35483;50.828;3.228;2023-11-22T05:04:02;6.40;99.90
49579;DHT22;35483;50.828;3.228;2023-11-22T05:06:30;6.40;99.90
49579;DHT22;35483;50.828;3.228;2023-11-22T05:08:59;6.40;99.90
49579;DHT22;35483;50.828;3.228;2023-11-22T05:11:28;6.40;99.90
49579;DHT22;35483;50.828;3.228;2023-11-22T05:13:56;6.50;99.90
49579;DHT22;35483;50.828;3.228;2023-11-22T05:16:23;6.50;99.90
49579;DHT22;35483;50.828;3.228;2023-11-22T05:18:52;6.50;99.90
49579;DHT22;35483;50.828;3.228;2023-11-22T05:21:17;6.50;99.90
49579;DHT22;35483;50.828;3.228;2023-11-22T05:23:44;6.50;99.90
49579;DHT22;35483;50.828;3.228;2023-11-22T05:26:16;6.50;99.90
49579;DHT22;35483;50.828;3.228;2023-11-22T05:28:45;6.40;99.90
49579;DHT22;35483;50.828;3.228;2023-11-22T05:31:15;6.40;99.90
49579;DHT22;35483;50.828;3.228;2023-11-22T05:33:44;6.40;99.90
49579;DHT22;35483;50.828;3.228;2023-11-22T05:36:11;6.30;99.90
49579;DHT22;35483;50.828;3.228;2023-11-22T05:38:38;6.30;99.90
49579;DHT22;35483;50.828;3.228;2023-11-22T05:41:05;6.30;99.90
49579;DHT22;35483;50.828;3.228;2023-11-22T05:43:33;6.30;99.90
49579;DHT22;35483;50.828;3.228;2023-11-22T05:46:03;6.30;99.90
49579;DHT22;35483;50.828;3.228;2023-11-22T05:48:31;6.30;99.90
49579;DHT22;35483;50.828;3.228;2023-11-22T05:50:57;6.30;99.90
49579;DHT22;35483;50.828;3.228;2023-11-22T05:53:24;6.30;99.90
49579;DHT22;35483;50.828;3.228;2023-11-22T05:55:55;6.30;99.90
49579;DHT22;35483;50.828;3.228;2023-11-22T05:58:24;6.20;99.90
49579;DHT22;35483;50.828;3.228;2023-11-22T06:00:50;6.20;99.90
49579;DHT22;35483;50.828;3.228;2023-11-22T06:03:16;6.10;99.90
49579;DHT22;35483;50.828;3.228;2023-11-22T06:05:44;6.10;99.90
49579;DHT22;35483;50.828;3.228;2023-11-22T06:08:11;6.00;99.90
49579;DHT22;35483;50.828;3.228;2023-11-22T06:10:38;6.00;99.90
49579;DHT22;35483;50.828;3.228;2023-11-22T06:13:09;6.00;99.90
49579;DHT22;35483;50.828;3.228;2023-11-22T06:15:37;6.00;99.90
49579;DHT22;35483;50.828;3.228;2023-11-22T06:18:06;6.10;99.90
49579;DHT22;35483;50.828;3.228;2023-11-22T06:20:31;6.10;99.90
49579;DHT22;35483;50.828;3.228;2023-11-22T06:22:58;6.10;99.90
49579;DHT22;35483;50.828;3.228;2023-11-22T06:25:25;6.20;99.90
49579;DHT22;35483;50.828;3.228;2023-11-22T06:27:53;6.20;99.90
49579;DHT22;35483;50.828;3.228;2023-11-22T06:30:21;6.20;99.90
49579;DHT22;35483;50.828;3.228;2023-11-22T06:32:48;6.10;99.90
49579;DHT22;35483;50.828;3.228;2023-11-22T06:35:17;6.10;99.90
49579;DHT22;35483;50.828;3.228;2023-11-22T06:37:46;6.10;99.90
49579;DHT22;35483;50.828;3.228;2023-11-22T06:40:15;6.10;99.90
49579;DHT22;35483;50.828;3.228;2023-11-22T06:42:44;6.10;99.90
49579;DHT22;35483;50.828;3.228;2023-11-22T06:45:10;6.10;99.90
49579;DHT22;35483;50.828;3.228;2023-11-22T06:47:39;6.10;99.90
49579;DHT22;35483;50.828;3.228;2023-11-22T06:50:05;6.10;99.90
49579;DHT22;35483;50.828;3.228;2023-11-22T06:52:38;6.20;99.90
49579;DHT22;35483;50.828;3.228;2023-11-22T06:55:06;6.20;99.90
49579;DHT22;35483;50.828;3.228;2023-11-22T06:57:38;6.30;99.90
49579;DHT22;35483;50.828;3.228;2023-11-22T07:00:06;6.30;99.90
49579;DHT22;35483;50.828;3.228;2023-11-22T07:02:36;6.30;99.90
49579;DHT22;35483;50.828;3.228;2023-11-22T07:05:03;6.30;99.90
49579;DHT22;35483;50.828;3.228;2023-11-22T07:07:35;6.30;99.90
49579;DHT22;35483;50.828;3.228;2023-11-22T07:10:10;6.30;99.90
49579;DHT22;35483;50.828;3.228;2023-11-22T07:12:39;6.30;99.90
49579;DHT22;35483;50.828;3.228;2023-11-22T07:15:10;6.30;99.90
49579;DHT22;35483;50.828;3.228;2023-11-22T07:17:39;6.40;99.90
49579;DHT22;35483;50.828;3.228;2023-11-22T07:20:08;6.40;99.90
49579;DHT22;35483;50.828;3.228;2023-11-22T07:22:40;6.40;99.90
49579;DHT22;35483;50.828;3.228;2023-11-22T07:25:15;6.40;99.90
49579;DHT22;35483;50.828;3.228;2023-11-22T07:27:48;6.40;99.90
49579;DHT22;35483;50.828;3.228;2023-11-22T07:30:14;6.40;99.90
49579;DHT22;35483;50.828;3.228;2023-11-22T07:32:44;6.40;99.90
49579;DHT22;35483;50.828;3.228;2023-11-22T07:35:10;6.40;99.90
49579;DHT22;35483;50.828;3.228;2023-11-22T07:37:39;6.40;99.90
49579;DHT22;35483;50.828;3.228;2023-11-22T07:40:06;6.40;99.90
49579;DHT22;35483;50.828;3.228;2023-11-22T07:42:34;6.40;99.90
49579;DHT22;35483;50.828;3.228;2023-11-22T07:45:00;6.40;99.90
49579;DHT22;35483;50.828;3.228;2023-11-22T07:47:30;6.40;99.90
49579;DHT22;35483;50.828;3.228;2023-11-22T07:49:57;6.50;99.90
49579;DHT22;35483;50.828;3.228;2023-11-22T07:52:24;6.50;99.90
49579;DHT22;35483;50.828;3.228;2023-11-22T07:54:58;6.60;99.90
49579;DHT22;35483;50.828;3.228;2023-11-22T07:57:25;6.60;99.90
49579;DHT22;35483;50.828;3.228;2023-11-22T07:59:53;6.70;99.90
49579;DHT22;35483;50.828;3.228;2023-11-22T08:02:21;6.70;99.90
49579;DHT22;35483;50.828;3.228;2023-11-22T08:04:47;6.70;99.90
49579;DHT22;35483;50.828;3.228;2023-11-22T08:07:16;6.80;99.90
49579;DHT22;35483;50.828;3.228;2023-11-22T08:09:44;6.90;99.90
49579;DHT22;35483;50.828;3.228;2023-11-22T08:12:11;6.90;99.90
49579;DHT22;35483;50.828;3.228;2023-11-22T08:14:39;7.00;99.90
49579;DHT22;35483;50.828;3.228;2023-11-22T08:17:13;7.00;99.90
49579;DHT22;35483;50.828;3.228;2023-11-22T08:19:40;7.00;99.90
49579;DHT22;35483;50.828;3.228;2023-11-22T08:22:07;7.00;99.90
49579;DHT22;35483;50.828;3.228;2023-11-22T08:24:39;7.00;99.90
49579;DHT22;35483;50.828;3.228;2023-11-22T08:27:06;7.00;99.90
49579;DHT22;35483;50.828;3.228;2023-11-22T08:29:34;7.10;99.90
49579;DHT22;35483;50.828;3.228;2023-11-22T08:32:01;7.10;99.90
49579;DHT22;35483;50.828;3.228;2023-11-22T08:34:28;7.10;99.90
49579;DHT22;35483;50.828;3.228;2023-11-22T08:36:55;7.10;99.90
49579;DHT22;35483;50.828;3.228;2023-11-22T08:39:22;7.10;99.90
49579;DHT22;35483;50.828;3.228;2023-11-22T08:41:51;7.20;99.90
49579;DHT22;35483;50.828;3.228;2023-11-22T08:44:19;7.30;99.90
49579;DHT22;35483;50.828;3.228;2023-11-22T08:46:47;7.30;99.90
49579;DHT22;35483;50.828;3.228;2023-11-22T08:49:14;7.40;99.90
49579;DHT22;35483;50.828;3.228;2023-11-22T08:51:43;7.40;99.90
49579;DHT22;35483;50.828;3.228;2023-11-22T08:54:13;7.50;99.90
49579;DHT22;35483;50.828;3.228;2023-11-22T08:56:41;7.60;99.90
49579;DHT22;35483;50.828;3.228;2023-11-22T08:59:10;7.70;99.90
49579;DHT22;35483;50.828;3.228;2023-11-22T09:01:40;7.70;99.90
49579;DHT22;35483;50.828;3.228;2023-11-22T09:04:08;7.70;99.90
49579;DHT22;35483;50.828;3.228;2023-11-22T09:06:35;7.80;99.90
49579;DHT22;35483;50.828;3.228;2023-11-22T09:09:00;7.90;99.90
49579;DHT22;35483;50.828;3.228;2023-11-22T09:11:26;8.00;99.90
49579;DHT22;35483;50.828;3.228;2023-11-22T09:13:52;8.10;99.90
49579;DHT22;35483;50.828;3.228;2023-11-22T09:16:23;8.10;99.90
49579;DHT22;35483;50.828;3.228;2023-11-22T09:18:51;8.10;99.90
49579;DHT22;35483;50.828;3.228;2023-11-22T09:21:17;8.20;99.90
49579;DHT22;35483;50.828;3.228;2023-11-22T09:23:45;8.20;99.90
49579;DHT22;35483;50.828;3.228;2023-11-22T09:26:14;8.30;99.90
49579;DHT22;35483;50.828;3.228;2023-11-22T09:28:41;8.30;99.90
49579;DHT22;35483;50.828;3.228;2023-11-22T09:31:07;8.40;99.90
49579;DHT22;35483;50.828;3.228;2023-11-22T09:33:35;8.50;99.90
49579;DHT22;35483;50.828;3.228;2023-11-22T09:36:03;8.50;99.90
49579;DHT22;35483;50.828;3.228;2023-11-22T09:38:30;8.60;99.90
49579;DHT22;35483;50.828;3.228;2023-11-22T09:40:58;8.70;99.90
49579;DHT22;35483;50.828;3.228;2023-11-22T09:43:27;8.80;99.90
49579;DHT22;35483;50.828;3.228;2023-11-22T09:45:55;8.90;99.90
49579;DHT22;35483;50.828;3.228;2023-11-22T09:48:21;9.00;99.90
49579;DHT22;35483;50.828;3.228;2023-11-22T09:53:57;9.10;99.90
49579;DHT22;35483;50.828;3.228;2023-11-22T09:56:36;9.10;99.90
49579;DHT22;35483;50.828;3.228;2023-11-22T09:59:06;9.10;99.90
49579;DHT22;35483;50.828;3.228;2023-11-22T10:01:33;9.20;99.90
49579;DHT22;35483;50.828;3.228;2023-11-22T10:04:08;9.20;99.90
49579;DHT22;35483;50.828;3.228;2023-11-22T10:06:33;9.30;99.90
49579;DHT22;35483;50.828;3.228;2023-11-22T10:09:02;9.30;99.90
49579;DHT22;35483;50.828;3.228;2023-11-22T10:11:35;9.30;99.90
49579;DHT22;35483;50.828;3.228;2023-11-22T10:14:10;9.30;99.90
49579;DHT22;35483;50.828;3.228;2023-11-22T10:16:36;9.30;99.90
49579;DHT22;35483;50.828;3.228;2023-11-22T10:19:05;9.30;99.90
49579;DHT22;35483;50.828;3.228;2023-11-22T10:21:35;9.40;99.90
49579;DHT22;35483;50.828;3.228;2023-11-22T10:24:05;9.40;99.90
49579;DHT22;35483;50.828;3.228;2023-11-22T10:26:36;9.40;99.90
49579;DHT22;35483;50.828;3.228;2023-11-22T10:29:02;9.40;99.90
49579;DHT22;35483;50.828;3.228;2023-11-22T10:31:33;9.40;99.90
49579;DHT22;35483;50.828;3.228;2023-11-22T10:34:03;9.40;99.90
49579;DHT22;35483;50.828;3.228;2023-11-22T10:36:32;9.40;99.90
49579;DHT22;35483;50.828;3.228;2023-11-22T10:38:57;9.40;99.90
49579;DHT22;35483;50.828;3.228;2023-11-22T10:41:26;9.40;99.90
49579;DHT22;35483;50.828;3.228;2023-11-22T10:43:53;9.30;99.90
49579;DHT22;35483;50.828;3.228;2023-11-22T10:46:28;9.30;99.90
49579;DHT22;35483;50.828;3.228;2023-11-22T10:48:54;9.40;99.90
49579;DHT22;35483;50.828;3.228;2023-11-22T10:51:21;9.30;99.90
49579;DHT22;35483;50.828;3.228;2023-11-22T10:53:51;9.30;99.90
49579;DHT22;35483;50.828;3.228;2023-11-22T10:56:20;9.30;99.90
49579;DHT22;35483;50.828;3.228;2023-11-22T10:58:50;9.30;99.90
49579;DHT22;35483;50.828;3.228;2023-11-22T11:01:17;9.30;99.90
49579;DHT22;35483;50.828;3.228;2023-11-22T11:03:48;9.30;99.90
49579;DHT22;35483;50.828;3.228;2023-11-22T11:06:22;9.30;99.90
49579;DHT22;35483;50.828;3.228;2023-11-22T11:08:55;9.40;99.90
49579;DHT22;35483;50.828;3.228;2023-11-22T11:11:23;9.40;99.90
49579;DHT22;35483;50.828;3.228;2023-11-22T11:13:51;9.30;99.90
49579;DHT22;35483;50.828;3.228;2023-11-22T11:16:18;9.40;99.90
49579;DHT22;35483;50.828;3.228;2023-11-22T11:18:47;9.30;99.90
49579;DHT22;35483;50.828;3.228;2023-11-22T11:21:15;9.40;99.90
49579;DHT22;35483;50.828;3.228;2023-11-22T11:23:41;9.40;99.90
49579;DHT22;35483;50.828;3.228;2023-11-22T11:26:15;9.50;99.90
49579;DHT22;35483;50.828;3.228;2023-11-22T11:28:46;9.60;99.90
49579;DHT22;35483;50.828;3.228;2023-11-22T11:31:14;9.70;99.90
49579;DHT22;35483;50.828;3.228;2023-11-22T11:36:31;10.00;99.90
49579;DHT22;35483;50.828;3.228;2023-11-22T11:39:05;10.10;99.90
49579;DHT22;35483;50.828;3.228;2023-11-22T11:41:35;10.10;99.90
49579;DHT22;35483;50.828;3.228;2023-11-22T11:44:10;10.20;99.90
49579;DHT22;35483;50.828;3.228;2023-11-22T11:46:38;10.20;99.90
49579;DHT22;35483;50.828;3.228;2023-11-22T11:49:09;10.20;99.90
49579;DHT22;35483;50.828;3.228;2023-11-22T11:51:37;10.10;99.90
49579;DHT22;35483;50.828;3.228;2023-11-22T11:54:04;10.00;99.90
49579;DHT22;35483;50.828;3.228;2023-11-22T11:56:33;10.00;99.90
49579;DHT22;35483;50.828;3.228;2023-11-22T11:59:01;9.90;99.90
49579;DHT22;35483;50.828;3.228;2023-11-22T12:01:38;9.90;99.90
49579;DHT22;35483;50.828;3.228;2023-11-22T12:04:09;10.00;99.90
49579;DHT22;35483;50.828;3.228;2023-11-22T12:06:36;10.00;99.90
49579;DHT22;35483;50.828;3.228;2023-11-22T12:09:06;10.10;99.90
49579;DHT22;35483;50.828;3.228;2023-11-22T12:11:33;10.20;99.90
49579;DHT22;35483;50.828;3.228;2023-11-22T12:14:00;10.30;99.90
49579;DHT22;35483;50.828;3.228;2023-11-22T12:16:30;10.30;99.90
49579;DHT22;35483;50.828;3.228;2023-11-22T12:18:57;10.40;99.90
49579;DHT22;35483;50.828;3.228;2023-11-22T12:21:24;10.40;99.90
49579;DHT22;35483;50.828;3.228;2023-11-22T12:23:51;10.40;99.90
49579;DHT22;35483;50.828;3.228;2023-11-22T12:26:20;10.30;99.90
49579;DHT22;35483;50.828;3.228;2023-11-22T12:28:48;10.40;99.90
49579;DHT22;35483;50.828;3.228;2023-11-22T12:31:15;10.30;99.90
49579;DHT22;35483;50.828;3.228;2023-11-22T12:33:42;10.30;99.90
49579;DHT22;35483;50.828;3.228;2023-11-22T12:36:11;10.40;99.90
49579;DHT22;35483;50.828;3.228;2023-11-22T12:38:44;10.50;99.90
49579;DHT22;35483;50.828;3.228;2023-11-22T12:41:10;10.60;99.90
49579;DHT22;35483;50.828;3.228;2023-11-22T12:43:36;10.70;99.90
49579;DHT22;35483;50.828;3.228;2023-11-22T12:46:05;10.70;99.90
49579;DHT22;35483;50.828;3.228;2023-11-22T12:48:45;10.70;99.90
49579;DHT22;35483;50.828;3.228;2023-11-22T12:51:17;10.70;99.90
49579;DHT22;35483;50.828;3.228;2023-11-22T12:53:47;10.60;99.90
49579;DHT22;35483;50.828;3.228;2023-11-22T12:56:13;10.60;99.90
49579;DHT22;35483;50.828;3.228;2023-11-22T12:58:39;10.60;99.90
49579;DHT22;35483;50.828;3.228;2023-11-22T13:01:05;10.60;99.90
49579;DHT22;35483;50.828;3.228;2023-11-22T13:03:30;10.60;99.90
49579;DHT22;35483;50.828;3.228;2023-11-22T13:05:59;10.60;99.90
49579;DHT22;35483;50.828;3.228;2023-11-22T13:08:28;10.70;99.90
49579;DHT22;35483;50.828;3.228;2023-11-22T13:10:56;10.70;99.90
49579;DHT22;35483;50.828;3.228;2023-11-22T13:13:24;10.80;99.90
49579;DHT22;35483;50.828;3.228;2023-11-22T13:15:52;10.80;99.90
49579;DHT22;35483;50.828;3.228;2023-11-22T13:18:20;10.80;99.90
49579;DHT22;35483;50.828;3.228;2023-11-22T13:20:46;10.80;99.90
49579;DHT22;35483;50.828;3.228;2023-11-22T13:23:14;10.80;99.90
49579;DHT22;35483;50.828;3.228;2023-11-22T13:25:42;10.80;99.90
49579;DHT22;35483;50.828;3.228;2023-11-22T13:28:09;10.80;99.90
49579;DHT22;35483;50.828;3.228;2023-11-22T13:30:35;10.80;99.90
49579;DHT22;35483;50.828;3.228;2023-11-22T13:33:03;10.80;99.90
49579;DHT22;35483;50.828;3.228;2023-11-22T13:35:34;10.80;99.90
49579;DHT22;35483;50.828;3.228;2023-11-22T13:38:03;10.80;99.90
49579;DHT22;35483;50.828;3.228;2023-11-22T13:40:36;10.80;99.90
49579;DHT22;35483;50.828;3.228;2023-11-22T13:43:04;10.70;99.90
49579;DHT22;35483;50.828;3.228;2023-11-22T13:45:31;10.70;99.90
49579;DHT22;35483;50.828;3.228;2023-11-22T13:47:58;10.60;99.90
49579;DHT22;35483;50.828;3.228;2023-11-22T13:50:33;10.50;99.90
49579;DHT22;35483;50.828;3.228;2023-11-22T13:52:59;10.50;99.90
49579;DHT22;35483;50.828;3.228;2023-11-22T13:55:27;10.50;99.90
49579;DHT22;35483;50.828;3.228;2023-11-22T13:57:55;10.40;99.90
49579;DHT22;35483;50.828;3.228;2023-11-22T14:00:29;10.30;99.90
49579;DHT22;35483;50.828;3.228;2023-11-22T14:03:02;10.40;99.90
49579;DHT22;35483;50.828;3.228;2023-11-22T14:05:37;10.40;99.90
49579;DHT22;35483;50.828;3.228;2023-11-22T14:08:05;10.50;99.90
49579;DHT22;35483;50.828;3.228;2023-11-22T14:10:34;10.50;99.90
49579;DHT22;35483;50.828;3.228;2023-11-22T14:13:01;10.60;99.90
49579;DHT22;35483;50.828;3.228;2023-11-22T14:15:29;10.70;99.90
49579;DHT22;35483;50.828;3.228;2023-11-22T14:17:57;10.70;99.90
49579;DHT22;35483;50.828;3.228;2023-11-22T14:20:24;10.70;99.90
49579;DHT22;35483;50.828;3.228;2023-11-22T14:22:54;10.70;99.90
49579;DHT22;35483;50.828;3.228;2023-11-22T14:25:21;10.70;99.90
49579;DHT22;35483;50.828;3.228;2023-11-22T14:27:49;10.70;99.90
49579;DHT22;35483;50.828;3.228;2023-11-22T14:30:20;10.80;99.90
49579;DHT22;35483;50.828;3.228;2023-11-22T14:32:47;10.80;99.90
49579;DHT22;35483;50.828;3.228;2023-11-22T14:35:13;10.80;99.90
49579;DHT22;35483;50.828;3.228;2023-11-22T14:37:39;10.80;99.90
49579;DHT22;35483;50.828;3.228;2023-11-22T14:40:09;10.80;99.90
49579;DHT22;35483;50.828;3.228;2023-11-22T14:42:46;10.80;99.90
49579;DHT22;35483;50.828;3.228;2023-11-22T14:45:18;10.70;99.90
49579;DHT22;35483;50.828;3.228;2023-11-22T14:47:48;10.70;99.90
49579;DHT22;35483;50.828;3.228;2023-11-22T14:50:19;10.80;99.90
49579;DHT22;35483;50.828;3.228;2023-11-22T14:52:48;10.80;99.90
49579;DHT22;35483;50.828;3.228;2023-11-22T14:55:15;10.80;99.90
49579;DHT22;35483;50.828;3.228;2023-11-22T14:57:41;10.70;99.90
49579;DHT22;35483;50.828;3.228;2023-11-22T15:00:10;10.60;99.90
49579;DHT22;35483;50.828;3.228;2023-11-22T15:02:40;10.60;99.90
49579;DHT22;35483;50.828;3.228;2023-11-22T15:05:16;10.60;99.90
49579;DHT22;35483;50.828;3.228;2023-11-22T15:07:45;10.60;99.90
49579;DHT22;35483;50.828;3.228;2023-11-22T15:10:13;10.60;99.90
49579;DHT22;35483;50.828;3.228;2023-11-22T15:12:40;10.50;99.90
49579;DHT22;35483;50.828;3.228;2023-11-22T15:15:13;10.50;99.90
49579;DHT22;35483;50.828;3.228;2023-11-22T15:17:39;10.50;99.90
49579;DHT22;35483;50.828;3.228;2023-11-22T15:20:06;10.50;99.90
49579;DHT22;35483;50.828;3.228;2023-11-22T15:22:38;10.50;99.90
49579;DHT22;35483;50.828;3.228;2023-11-22T15:25:04;10.50;99.90
49579;DHT22;35483;50.828;3.228;2023-11-22T15:27:34;10.50;99.90
49579;DHT22;35483;50.828;3.228;2023-11-22T15:30:02;10.40;99.90
49579;DHT22;35483;50.828;3.228;2023-11-22T15:32:30;10.40;99.90
49579;DHT22;35483;50.828;3.228;2023-11-22T15:34:55;10.40;99.90
49579;DHT22;35483;50.828;3.228;2023-11-22T15:37:24;10.40;99.90
49579;DHT22;35483;50.828;3.228;2023-11-22T15:39:50;10.30;99.90
49579;DHT22;35483;50.828;3.228;2023-11-22T15:42:15;10.30;99.90
49579;DHT22;35483;50.828;3.228;2023-11-22T15:44:44;10.30;99.90
49579;DHT22;35483;50.828;3.228;2023-11-22T15:47:12;10.30;99.90
49579;DHT22;35483;50.828;3.228;2023-11-22T15:49:41;10.30;99.90
49579;DHT22;35483;50.828;3.228;2023-11-22T15:52:07;10.30;99.90
49579;DHT22;35483;50.828;3.228;2023-11-22T15:54:36;10.30;99.90